Time;durP1;ratioP1;P1;durP2;ratioP2;P2;SDS_P1;SDS_P2;PMS_P1;PMS_P2;Temp;Humidity;BMP_temperature;BMP_pressure;BME280_temperature;BME280_humidity;BME280_pressure;Samples;Min_cycle;Max_cycle;Signal;HPM_P1;HPM_P2
2022/08/18 00:02:18;;;;;;;6.60;5.90;;;19.20;99.90;;;;;;5052981;28;20265;-66
2022/08/18 00:04:46;;;;;;;7.63;5.90;;;19.20;99.90;;;;;;5052601;28;20199;-66
2022/08/18 00:07:17;;;;;;;8.82;6.40;;;19.20;99.90;;;;;;5052865;28;20211;-67
2022/08/18 00:09:46;;;;;;;8.48;6.30;;;19.10;99.90;;;;;;5052654;28;20252;-67
2022/08/18 00:12:16;;;;;;;10.65;6.38;;;19.00;99.90;;;;;;5051731;28;20696;-66
2022/08/18 00:14:45;;;;;;;9.05;6.70;;;19.10;99.90;;;;;;5051114;28;20249;-67
2022/08/18 00:17:13;;;;;;;7.43;6.38;;;19.00;99.90;;;;;;5053036;28;20273;-66
2022/08/18 00:19:40;;;;;;;10.30;6.78;;;18.90;99.90;;;;;;5051984;28;20262;-67
2022/08/18 00:22:07;;;;;;;9.55;7.20;;;18.90;99.90;;;;;;5052204;28;20842;-67
2022/08/18 00:24:34;;;;;;;6.95;6.28;;;18.90;99.90;;;;;;5052786;28;20199;-66
2022/08/18 00:27:04;;;;;;;8.63;6.93;;;18.90;99.90;;;;;;5052882;28;20630;-66
2022/08/18 00:29:31;;;;;;;9.77;7.07;;;18.90;99.90;;;;;;5051323;28;20242;-67
2022/08/18 00:31:58;;;;;;;7.65;6.82;;;18.90;99.90;;;;;;5051977;28;20615;-66
2022/08/18 00:34:25;;;;;;;8.75;7.05;;;18.90;99.90;;;;;;5052320;28;20245;-66
2022/08/18 00:36:52;;;;;;;7.65;6.55;;;18.90;99.90;;;;;;5052834;28;20282;-66
2022/08/18 00:39:19;;;;;;;8.93;6.15;;;18.90;99.90;;;;;;5051268;28;20199;-66
2022/08/18 00:41:46;;;;;;;7.13;6.15;;;18.70;99.90;;;;;;5045690;28;20203;-67
2022/08/18 00:44:15;;;;;;;7.75;6.18;;;18.80;99.90;;;;;;5049622;28;20203;-67
2022/08/18 00:46:42;;;;;;;8.65;6.32;;;18.70;99.90;;;;;;5043098;28;20203;-66
2022/08/18 00:49:09;;;;;;;7.95;6.40;;;18.70;99.90;;;;;;5046346;28;20217;-66
2022/08/18 00:51:42;;;;;;;6.72;6.03;;;18.70;99.90;;;;;;5051127;28;20295;-66
2022/08/18 00:54:29;;;;;;;7.57;6.43;;;18.70;99.90;;;;;;5051412;28;20203;-66
2022/08/18 00:56:59;;;;;;;9.23;6.32;;;18.80;99.90;;;;;;5046660;28;20203;-67
2022/08/18 00:59:33;;;;;;;8.98;6.65;;;18.70;99.90;;;;;;5052691;28;20205;-67
2022/08/18 01:02:05;;;;;;;9.73;6.78;;;18.70;99.90;;;;;;5037265;28;20207;-66
2022/08/18 01:04:38;;;;;;;8.63;6.53;;;18.70;99.90;;;;;;5051726;28;20195;-66
2022/08/18 01:07:11;;;;;;;12.80;6.95;;;18.70;99.90;;;;;;5051114;28;20286;-68
2022/08/18 01:09:38;;;;;;;10.05;6.63;;;18.70;99.90;;;;;;5049935;28;20207;-66
2022/08/18 01:12:07;;;;;;;8.07;7.05;;;18.70;99.90;;;;;;5046410;28;20253;-67
2022/08/18 01:14:37;;;;;;;9.27;6.82;;;18.60;99.90;;;;;;5052211;28;20203;-66
2022/08/18 01:22:58;;;;;;;10.27;7.53;;;18.50;99.90;;;;;;5013763;28;20219;-67
2022/08/18 01:28:10;;;;;;;8.85;7.95;;;18.30;99.90;;;;;;5052059;28;20218;-66
2022/08/18 01:30:47;;;;;;;16.20;8.65;;;18.40;99.90;;;;;;5051801;28;20272;-66
2022/08/18 01:33:14;;;;;;;11.07;8.57;;;18.30;99.90;;;;;;5031800;28;20657;-66
2022/08/18 01:35:47;;;;;;;9.98;8.40;;;18.20;99.90;;;;;;5042059;28;20253;-67
2022/08/18 01:38:17;;;;;;;10.20;8.05;;;18.20;99.90;;;;;;5050783;28;20653;-66
2022/08/18 01:40:44;;;;;;;10.55;8.38;;;18.20;99.90;;;;;;5051104;28;20218;-66
2022/08/18 01:43:11;;;;;;;10.95;8.73;;;18.30;99.90;;;;;;5045318;28;20649;-66
2022/08/18 01:45:39;;;;;;;12.00;10.07;;;18.40;99.90;;;;;;5048415;28;20198;-66
2022/08/18 01:48:06;;;;;;;10.70;8.60;;;18.40;99.90;;;;;;5051354;28;20278;-66
2022/08/18 01:50:34;;;;;;;11.40;9.43;;;18.30;99.90;;;;;;5040979;28;20635;-66
2022/08/18 01:53:03;;;;;;;13.95;10.15;;;18.20;99.90;;;;;;5042488;28;20205;-66
2022/08/18 01:55:31;;;;;;;15.15;11.65;;;18.20;99.90;;;;;;5050879;28;20214;-66
2022/08/18 01:58:00;;;;;;;15.73;10.48;;;18.20;99.90;;;;;;5051340;28;20230;-66
2022/08/18 02:00:28;;;;;;;11.77;9.75;;;18.40;99.90;;;;;;5036179;28;20273;-67
2022/08/18 02:02:56;;;;;;;14.90;9.90;;;18.50;99.90;;;;;;5042792;28;20222;-66
2022/08/18 02:05:29;;;;;;;14.68;10.70;;;18.60;99.90;;;;;;5050823;28;20606;-66
2022/08/18 02:07:56;;;;;;;14.07;10.68;;;18.60;99.90;;;;;;5051117;28;20203;-67
2022/08/18 02:10:23;;;;;;;14.60;11.15;;;18.50;99.90;;;;;;5050253;28;20641;-66
2022/08/18 02:12:52;;;;;;;15.05;11.13;;;18.40;99.90;;;;;;5051363;28;20293;-66
2022/08/18 02:15:19;;;;;;;17.75;12.90;;;18.50;99.90;;;;;;5050444;28;20289;-66
2022/08/18 02:17:46;;;;;;;17.45;13.60;;;18.40;99.90;;;;;;5051028;28;20675;-66
2022/08/18 02:20:16;;;;;;;19.63;13.27;;;18.40;99.90;;;;;;5050314;28;20253;-67
2022/08/18 02:22:44;;;;;;;20.05;15.48;;;18.40;99.90;;;;;;5049975;28;20623;-66
2022/08/18 02:25:12;;;;;;;19.75;15.00;;;18.40;99.90;;;;;;5035899;28;20211;-67
2022/08/18 02:27:39;;;;;;;19.52;15.07;;;18.40;99.90;;;;;;5041809;28;20300;-66
2022/08/18 02:30:11;;;;;;;19.25;14.82;;;18.40;99.90;;;;;;5051238;28;20202;-67
2022/08/18 02:32:38;;;;;;;21.70;16.33;;;18.40;99.90;;;;;;5055045;28;20203;-66
2022/08/18 02:35:07;;;;;;;22.17;17.35;;;18.40;99.90;;;;;;5054797;28;20203;-66
2022/08/18 02:37:34;;;;;;;25.42;18.75;;;18.50;99.90;;;;;;5054567;28;20203;-66
2022/08/18 02:40:01;;;;;;;23.50;18.88;;;18.50;99.90;;;;;;5054295;28;20286;-67
2022/08/18 02:42:29;;;;;;;24.88;20.00;;;18.60;99.90;;;;;;5054898;28;20242;-66
2022/08/18 02:44:56;;;;;;;25.70;21.02;;;18.50;99.90;;;;;;5053287;28;20203;-66
2022/08/18 02:47:25;;;;;;;25.35;20.83;;;18.50;99.90;;;;;;5054031;28;20234;-66
2022/08/18 02:49:52;;;;;;;28.13;23.67;;;18.50;99.90;;;;;;5054562;28;20238;-67
2022/08/18 02:52:19;;;;;;;31.38;22.50;;;18.40;99.90;;;;;;5053357;28;20588;-66
2022/08/18 02:54:47;;;;;;;30.25;24.02;;;18.50;99.90;;;;;;5053534;28;20199;-66
2022/08/18 02:57:14;;;;;;;31.00;25.02;;;18.50;99.90;;;;;;5054099;28;20205;-67
2022/08/18 02:59:42;;;;;;;33.00;28.38;;;18.50;99.90;;;;;;5054093;28;20323;-66
2022/08/18 03:02:10;;;;;;;35.90;29.30;;;18.40;99.90;;;;;;5053986;28;20268;-66
2022/08/18 03:04:38;;;;;;;36.33;28.88;;;18.50;99.90;;;;;;5053947;28;20264;-67
2022/08/18 03:07:07;;;;;;;36.05;29.48;;;18.50;99.90;;;;;;5054257;28;20523;-66
2022/08/18 03:09:35;;;;;;;37.67;28.67;;;18.50;99.90;;;;;;5052982;28;20256;-66
2022/08/18 03:12:02;;;;;;;36.97;30.63;;;18.50;99.90;;;;;;5052797;28;20207;-67
2022/08/18 03:14:30;;;;;;;35.90;30.25;;;18.40;99.90;;;;;;5050237;28;20286;-67
2022/08/18 03:16:57;;;;;;;37.92;29.90;;;18.40;99.90;;;;;;5054129;28;20604;-67
2022/08/18 03:19:24;;;;;;;34.95;28.83;;;18.40;99.90;;;;;;5052190;28;20222;-67
2022/08/18 03:21:53;;;;;;;33.47;28.65;;;18.40;99.90;;;;;;5033400;28;20799;-67
2022/08/18 03:24:21;;;;;;;33.17;27.20;;;18.40;99.90;;;;;;5034963;28;20251;-66
2022/08/18 03:26:48;;;;;;;33.28;27.73;;;18.30;99.90;;;;;;5034884;28;20291;-66
2022/08/18 03:29:15;;;;;;;39.63;29.98;;;18.30;99.90;;;;;;5033318;28;20246;-66
2022/08/18 03:31:44;;;;;;;38.10;33.05;;;18.40;99.90;;;;;;5034179;28;20239;-67
2022/08/18 03:34:12;;;;;;;41.70;32.60;;;18.50;99.90;;;;;;5034068;28;20831;-66
2022/08/18 03:36:40;;;;;;;36.85;29.90;;;18.50;99.90;;;;;;5034297;28;20625;-66
2022/08/18 03:39:11;;;;;;;37.10;29.42;;;18.50;99.90;;;;;;5036468;28;20611;-67
2022/08/18 03:41:40;;;;;;;37.50;30.80;;;18.30;99.90;;;;;;5052141;28;20256;-67
2022/08/18 03:44:07;;;;;;;35.72;28.67;;;18.40;99.90;;;;;;5049171;28;20215;-67
2022/08/18 03:46:34;;;;;;;36.35;30.00;;;18.40;99.90;;;;;;5050715;28;20252;-66
2022/08/18 03:49:02;;;;;;;36.55;29.95;;;18.30;99.90;;;;;;5053430;28;20290;-67
2022/08/18 03:51:31;;;;;;;37.38;31.23;;;18.30;99.90;;;;;;5035383;28;20255;-67
2022/08/18 03:54:00;;;;;;;37.80;30.10;;;18.30;99.90;;;;;;5032250;28;20223;-67
2022/08/18 03:56:32;;;;;;;35.17;29.90;;;18.30;99.90;;;;;;5034154;28;20631;-67
2022/08/18 03:59:02;;;;;;;42.75;32.50;;;18.30;99.90;;;;;;5033446;28;20227;-67
2022/08/18 04:01:37;;;;;;;37.95;32.17;;;18.20;99.90;;;;;;5033542;28;20291;-66
2022/08/18 04:04:06;;;;;;;39.13;32.40;;;18.20;99.90;;;;;;5046476;28;20202;-68
2022/08/18 04:06:37;;;;;;;40.80;34.28;;;18.20;99.90;;;;;;5053017;28;20211;-66
2022/08/18 04:09:06;;;;;;;44.38;36.22;;;18.20;99.90;;;;;;5054141;28;20510;-68
2022/08/18 04:11:36;;;;;;;42.75;34.90;;;18.20;99.90;;;;;;5052914;28;20226;-70
2022/08/18 04:14:03;;;;;;;46.13;34.80;;;18.20;99.90;;;;;;5052932;28;20203;-67
2022/08/18 04:16:32;;;;;;;40.25;34.13;;;18.20;99.90;;;;;;5052251;28;20722;-70
2022/08/18 04:19:02;;;;;;;49.60;42.80;;;18.20;99.90;;;;;;5053380;28;20685;-68
2022/08/18 04:21:31;;;;;;;45.88;37.25;;;18.20;99.90;;;;;;5052168;28;20207;-66
2022/08/18 04:24:03;;;;;;;44.35;35.25;;;18.10;99.90;;;;;;5052481;28;20207;-66
2022/08/18 04:26:31;;;;;;;42.75;34.58;;;18.20;99.90;;;;;;5034125;28;20203;-66
2022/08/18 04:29:00;;;;;;;42.65;34.95;;;18.20;99.90;;;;;;5034405;28;20254;-66
2022/08/18 04:31:28;;;;;;;42.30;35.40;;;18.20;99.90;;;;;;5050689;28;20199;-66
2022/08/18 04:33:57;;;;;;;43.38;34.08;;;18.30;99.90;;;;;;5053552;28;20199;-66
2022/08/18 04:36:24;;;;;;;42.92;35.95;;;18.30;99.90;;;;;;5054071;28;20210;-66
2022/08/18 04:38:51;;;;;;;45.53;36.55;;;18.30;99.90;;;;;;5053401;28;20219;-66
2022/08/18 04:41:26;;;;;;;44.22;36.67;;;18.30;99.90;;;;;;5044729;28;20223;-66
2022/08/18 04:43:53;;;;;;;42.67;34.65;;;18.40;99.90;;;;;;5046539;28;20238;-66
2022/08/18 04:46:21;;;;;;;44.67;36.53;;;18.60;99.90;;;;;;5049134;28;20214;-66
2022/08/18 04:48:48;;;;;;;44.70;36.63;;;18.60;99.90;;;;;;5044986;28;20260;-66
2022/08/18 04:51:18;;;;;;;40.72;35.10;;;18.60;99.90;;;;;;5053221;28;20207;-66
2022/08/18 04:53:45;;;;;;;41.80;34.83;;;18.70;99.90;;;;;;5052089;28;20199;-66
2022/08/18 04:56:20;;;;;;;42.22;34.63;;;18.90;99.90;;;;;;5053695;28;20199;-66
2022/08/18 04:58:50;;;;;;;43.08;36.83;;;19.00;99.90;;;;;;5053472;28;20621;-66
2022/08/18 05:01:17;;;;;;;42.42;35.78;;;19.10;99.90;;;;;;5041912;28;20633;-66
2022/08/18 05:03:45;;;;;;;43.70;36.38;;;19.10;99.90;;;;;;5053117;28;20241;-66
2022/08/18 05:06:12;;;;;;;47.50;38.75;;;19.20;99.90;;;;;;5044334;28;20729;-66
2022/08/18 05:08:39;;;;;;;43.72;37.80;;;19.10;99.90;;;;;;5033541;28;20199;-66
2022/08/18 05:11:06;;;;;;;43.95;38.00;;;19.20;99.90;;;;;;5033299;28;20200;-66
2022/08/18 05:13:33;;;;;;;49.03;38.13;;;19.20;99.90;;;;;;5032922;28;20223;-66
2022/08/18 05:16:02;;;;;;;49.10;38.75;;;19.30;99.90;;;;;;5033656;28;20559;-66
2022/08/18 05:18:30;;;;;;;46.42;38.95;;;19.30;99.90;;;;;;5032875;28;20211;-66
2022/08/18 05:21:00;;;;;;;46.38;38.70;;;19.40;99.90;;;;;;5032976;28;20647;-66
2022/08/18 05:23:28;;;;;;;42.58;36.85;;;19.40;99.90;;;;;;5039468;28;20244;-66
2022/08/18 05:25:59;;;;;;;44.92;37.45;;;19.50;99.90;;;;;;5052325;28;20649;-66
2022/08/18 05:28:26;;;;;;;46.00;38.75;;;19.70;99.90;;;;;;5052572;28;20205;-66
2022/08/18 05:30:53;;;;;;;45.60;38.53;;;19.70;99.90;;;;;;5036564;28;20219;-66
2022/08/18 05:33:20;;;;;;;46.15;37.40;;;19.70;99.90;;;;;;5033356;28;20608;-66
2022/08/18 05:35:51;;;;;;;44.47;37.50;;;19.70;99.90;;;;;;5033184;28;20203;-66
2022/08/18 05:38:31;;;;;;;41.03;35.78;;;19.80;99.90;;;;;;5032871;28;20234;-66
2022/08/18 05:41:10;;;;;;;40.42;36.00;;;19.70;99.90;;;;;;5032842;28;20203;-66
2022/08/18 05:43:39;;;;;;;40.70;34.40;;;19.80;99.90;;;;;;5032729;28;20642;-66
2022/08/18 05:46:09;;;;;;;44.65;36.15;;;19.90;99.90;;;;;;5033119;28;20576;-66
2022/08/18 05:48:37;;;;;;;40.47;34.17;;;20.00;99.90;;;;;;5032508;28;20211;-66
2022/08/18 05:51:13;;;;;;;42.70;35.88;;;20.00;99.90;;;;;;5047241;28;20206;-66
2022/08/18 05:56:47;;;;;;;42.72;36.92;;;20.10;99.90;;;;;;5052878;28;20210;-66
2022/08/18 05:59:22;;;;;;;41.60;34.97;;;20.20;99.90;;;;;;5051134;28;20219;-66
2022/08/18 06:01:56;;;;;;;40.65;34.00;;;20.30;99.90;;;;;;5044362;28;20292;-66
2022/08/18 06:04:34;;;;;;;40.95;34.17;;;20.30;99.90;;;;;;5052931;28;20648;-66
2022/08/18 06:07:04;;;;;;;42.85;35.05;;;20.40;99.90;;;;;;5041318;28;20198;-66
2022/08/18 06:09:38;;;;;;;39.08;34.28;;;20.60;99.90;;;;;;5059150;28;20674;-66
2022/08/18 06:12:21;;;;;;;40.03;33.65;;;20.80;99.90;;;;;;5058979;28;20693;-66
2022/08/18 06:14:48;;;;;;;41.60;34.88;;;20.70;99.90;;;;;;5052811;28;20202;-66
2022/08/18 06:17:43;;;;;;;41.65;35.92;;;20.70;99.90;;;;;;5059135;28;20641;-66
2022/08/18 06:20:20;;;;;;;43.58;36.63;;;20.80;99.90;;;;;;5050715;28;20246;-66
2022/08/18 06:22:57;;;;;;;43.58;37.70;;;20.80;99.90;;;;;;5038628;28;20207;-66
2022/08/18 06:25:36;;;;;;;44.80;38.10;;;20.80;99.90;;;;;;5021311;28;20214;-66
2022/08/18 06:28:07;;;;;;;44.45;38.33;;;20.80;99.90;;;;;;5038618;28;20230;-66
2022/08/18 06:30:48;;;;;;;45.53;37.40;;;20.90;99.90;;;;;;5052702;28;20210;-66
2022/08/18 06:33:28;;;;;;;43.63;36.22;;;20.80;99.90;;;;;;5059020;28;20202;-66
2022/08/18 06:36:02;;;;;;;44.28;37.13;;;21.30;99.90;;;;;;5059125;28;20230;-66
2022/08/18 06:38:42;;;;;;;42.90;37.33;;;21.30;99.90;;;;;;5058807;28;20206;-66
2022/08/18 06:41:15;;;;;;;43.65;38.17;;;21.30;99.90;;;;;;5058357;28;20194;-66
2022/08/18 06:43:58;;;;;;;45.13;36.58;;;21.30;99.90;;;;;;5058857;28;20206;-66
2022/08/18 06:46:34;;;;;;;40.65;35.55;;;21.40;99.90;;;;;;5058577;28;20237;-66
2022/08/18 06:49:06;;;;;;;41.17;35.50;;;21.40;99.90;;;;;;5021253;28;20199;-66
2022/08/18 06:51:33;;;;;;;40.42;33.72;;;21.60;99.90;;;;;;5038384;28;20290;-66
2022/08/18 06:54:02;;;;;;;40.47;33.65;;;21.50;99.90;;;;;;5058664;28;20195;-66
2022/08/18 06:56:50;;;;;;;39.22;33.28;;;21.70;99.90;;;;;;5055712;28;20295;-66
2022/08/18 06:59:21;;;;;;;37.33;30.98;;;21.70;99.90;;;;;;5048656;28;20224;-66
2022/08/18 07:01:52;;;;;;;37.10;31.75;;;22.10;99.90;;;;;;5038071;28;20215;-66
2022/08/18 07:04:37;;;;;;;34.58;30.55;;;22.00;99.90;;;;;;5038300;28;20203;-66
2022/08/18 07:07:29;;;;;;;34.95;31.23;;;22.40;99.90;;;;;;5038971;28;20207;-66
2022/08/18 07:09:56;;;;;;;36.58;30.83;;;22.20;99.90;;;;;;5038108;28;20677;-66
2022/08/18 07:12:26;;;;;;;37.60;31.92;;;22.30;99.90;;;;;;5038242;28;20207;-67
2022/08/18 07:14:55;;;;;;;38.83;30.50;;;22.30;99.90;;;;;;5038721;28;20270;-66
2022/08/18 07:17:25;;;;;;;33.22;27.60;;;22.30;99.90;;;;;;5035660;28;20259;-66
2022/08/18 07:19:58;;;;;;;33.92;27.75;;;22.40;99.90;;;;;;5035308;28;20235;-66
2022/08/18 07:22:25;;;;;;;36.85;30.58;;;22.40;99.90;;;;;;5035354;28;20551;-66
2022/08/18 07:24:54;;;;;;;30.90;27.25;;;22.20;99.90;;;;;;5035332;28;20207;-66
2022/08/18 07:27:40;;;;;;;31.13;27.77;;;22.40;99.90;;;;;;5035474;28;20222;-66
2022/08/18 07:30:11;;;;;;;34.38;29.10;;;22.60;99.90;;;;;;5034729;28;20565;-66
2022/08/18 07:32:43;;;;;;;32.03;27.70;;;22.60;99.90;;;;;;5034909;28;20639;-66
2022/08/18 07:35:15;;;;;;;31.80;28.30;;;22.80;99.90;;;;;;5042126;28;20252;-66
2022/08/18 07:37:48;;;;;;;32.22;28.73;;;22.90;99.90;;;;;;5050747;28;20544;-66
2022/08/18 07:40:23;;;;;;;29.73;26.52;;;23.00;99.90;;;;;;5054871;28;20693;-66
2022/08/18 07:42:58;;;;;;;32.58;28.75;;;23.10;99.90;;;;;;5051297;28;20214;-66
2022/08/18 07:45:31;;;;;;;31.92;28.20;;;22.80;99.90;;;;;;5016894;28;20211;-66
2022/08/18 07:48:09;;;;;;;31.20;26.80;;;22.80;99.90;;;;;;5034719;28;20207;-66
2022/08/18 07:50:43;;;;;;;31.33;27.80;;;23.00;99.90;;;;;;5034780;28;20218;-66
2022/08/18 07:53:19;;;;;;;31.67;27.23;;;23.20;99.90;;;;;;5016536;28;20266;-66
2022/08/18 07:55:51;;;;;;;31.95;28.20;;;23.00;99.90;;;;;;5016717;28;20210;-66
2022/08/18 07:58:28;;;;;;;34.10;27.50;;;22.90;99.90;;;;;;5034783;28;20211;-66
2022/08/18 08:01:04;;;;;;;29.27;25.50;;;23.00;99.90;;;;;;5048400;28;20234;-66
2022/08/18 08:03:44;;;;;;;27.38;24.08;;;23.00;99.90;;;;;;5054191;28;20206;-66
2022/08/18 08:06:18;;;;;;;27.55;24.48;;;22.80;99.90;;;;;;5036461;28;20253;-66
2022/08/18 08:08:55;;;;;;;27.35;24.05;;;22.90;99.90;;;;;;5036956;28;20811;-66
2022/08/18 08:11:34;;;;;;;27.85;23.65;;;23.00;99.90;;;;;;5036792;28;20645;-66
2022/08/18 08:14:17;;;;;;;27.40;23.63;;;23.10;99.90;;;;;;5053987;28;20207;-66
2022/08/18 08:16:49;;;;;;;27.55;24.65;;;22.90;99.90;;;;;;5054290;28;20211;-66
2022/08/18 08:19:43;;;;;;;27.90;24.90;;;22.80;99.90;;;;;;5053859;28;20203;-66
2022/08/18 08:22:19;;;;;;;26.73;23.25;;;22.80;99.90;;;;;;5048524;28;20199;-66
2022/08/18 08:24:56;;;;;;;28.75;23.50;;;22.90;99.90;;;;;;5054115;28;20190;-66
2022/08/18 08:27:32;;;;;;;33.92;29.73;;;23.00;99.90;;;;;;5049005;28;20187;-66
2022/08/18 08:30:05;;;;;;;33.78;29.08;;;23.00;99.90;;;;;;5038260;28;20207;-66
2022/08/18 08:32:35;;;;;;;37.55;32.92;;;22.90;99.90;;;;;;5033939;28;20208;-66
2022/08/18 08:35:08;;;;;;;37.72;33.38;;;22.80;99.90;;;;;;5033783;28;20204;-66
2022/08/18 08:37:42;;;;;;;34.88;29.75;;;22.80;99.90;;;;;;5034897;28;20207;-66
2022/08/18 08:40:15;;;;;;;37.70;33.03;;;23.10;99.90;;;;;;5048254;28;20224;-66
2022/08/18 08:42:49;;;;;;;36.40;31.08;;;23.10;99.90;;;;;;5050235;28;20202;-67
2022/08/18 08:45:24;;;;;;;34.83;30.67;;;23.00;99.90;;;;;;5047238;28;20679;-66
2022/08/18 08:47:58;;;;;;;34.30;29.25;;;23.30;99.90;;;;;;5032748;28;20209;-66
2022/08/18 08:50:28;;;;;;;34.70;30.00;;;23.20;99.90;;;;;;5034587;28;20261;-66
2022/08/18 08:53:00;;;;;;;34.47;29.95;;;23.30;99.90;;;;;;5053057;28;20654;-66
2022/08/18 08:55:30;;;;;;;33.70;28.98;;;22.90;99.90;;;;;;5051112;28;20203;-66
2022/08/18 08:58:17;;;;;;;36.03;32.03;;;23.30;99.90;;;;;;5053172;28;20214;-66
2022/08/18 09:00:47;;;;;;;35.63;30.73;;;23.40;99.90;;;;;;5046578;28;20230;-66
2022/08/18 09:03:25;;;;;;;32.53;28.25;;;23.30;99.90;;;;;;5033788;28;20295;-66
2022/08/18 09:06:00;;;;;;;33.70;29.88;;;23.40;99.90;;;;;;5033201;28;20207;-66
2022/08/18 09:08:54;;;;;;;33.40;28.55;;;23.40;99.90;;;;;;5033545;28;20207;-66
2022/08/18 09:11:47;;;;;;;34.67;28.85;;;23.50;99.90;;;;;;5038102;28;20226;-66
2022/08/18 09:14:36;;;;;;;34.95;28.60;;;23.60;99.90;;;;;;5029958;28;20207;-67
2022/08/18 09:17:23;;;;;;;33.10;27.42;;;24.10;99.90;;;;;;5053006;28;20665;-66
2022/08/18 09:20:10;;;;;;;31.13;27.73;;;24.40;99.90;;;;;;5046191;28;20242;-67
2022/08/18 09:22:48;;;;;;;30.90;27.48;;;24.60;99.90;;;;;;5015917;28;20203;-67
2022/08/18 09:25:32;;;;;;;29.95;26.08;;;24.70;99.90;;;;;;5032902;28;20208;-67
2022/08/18 09:28:11;;;;;;;29.13;25.75;;;25.20;99.90;;;;;;5033504;28;20655;-66
2022/08/18 09:30:45;;;;;;;30.67;27.30;;;25.20;99.90;;;;;;5033055;28;20199;-67
2022/08/18 09:33:33;;;;;;;29.13;26.02;;;25.40;99.90;;;;;;5032939;28;20273;-66
2022/08/18 09:36:20;;;;;;;28.50;24.05;;;25.70;99.90;;;;;;5046968;28;20214;-67
2022/08/18 09:41:46;;;;;;;26.25;22.88;;;25.40;99.90;;;;;;5050699;28;20595;-67
2022/08/18 09:44:34;;;;;;;26.85;23.95;;;25.60;99.90;;;;;;5035097;28;20207;-67
2022/08/18 09:47:02;;;;;;;27.98;23.23;;;25.20;99.90;;;;;;5032352;28;20215;-66
2022/08/18 09:49:52;;;;;;;26.48;22.60;;;25.30;99.90;;;;;;5032617;28;20806;-67
2022/08/18 09:52:56;;;;;;;23.35;20.52;;;25.50;99.90;;;;;;5032767;28;20269;-66
2022/08/18 09:55:54;;;;;;;24.55;21.73;;;25.30;99.90;;;;;;5032615;28;20233;-67
2022/08/18 09:58:54;;;;;;;26.30;22.63;;;25.30;99.90;;;;;;5032597;28;20620;-66
2022/08/18 10:01:32;;;;;;;24.52;20.05;;;25.20;99.90;;;;;;5032665;28;20728;-66
2022/08/18 10:04:47;;;;;;;22.38;19.33;;;25.20;99.90;;;;;;5032619;28;20210;-67
2022/08/18 10:07:32;;;;;;;21.17;18.83;;;25.20;99.90;;;;;;5032638;28;20204;-66
2022/08/18 10:10:14;;;;;;;22.20;18.05;;;25.60;99.90;;;;;;5032303;28;20215;-67
2022/08/18 10:13:03;;;;;;;22.98;20.50;;;25.90;99.90;;;;;;5032692;28;20218;-67
2022/08/18 10:15:50;;;;;;;20.75;17.70;;;26.00;99.90;;;;;;5045180;28;20276;-67
2022/08/18 10:18:37;;;;;;;21.30;17.85;;;25.70;99.90;;;;;;5052832;28;20221;-67
2022/08/18 10:21:13;;;;;;;24.52;20.40;;;25.70;99.90;;;;;;5033601;28;20214;-67
2022/08/18 10:24:14;;;;;;;25.35;22.17;;;25.40;99.90;;;;;;5034500;28;20242;-67
2022/08/18 10:27:22;;;;;;;24.80;20.42;;;25.30;99.90;;;;;;5050974;28;20223;-67
2022/08/18 10:29:55;;;;;;;22.23;18.83;;;25.50;99.90;;;;;;5038978;28;20564;-67
2022/08/18 10:32:44;;;;;;;24.95;21.30;;;25.90;99.90;;;;;;5052416;28;20203;-67
2022/08/18 10:35:51;;;;;;;23.73;20.55;;;25.70;99.90;;;;;;5042305;28;20654;-67
2022/08/18 10:38:52;;;;;;;23.95;21.35;;;25.80;99.90;;;;;;5032160;28;20239;-67
2022/08/18 10:41:29;;;;;;;22.88;18.05;;;26.00;99.90;;;;;;4988589;28;20678;-67
2022/08/18 10:43:58;;;;;;;23.98;19.67;;;26.20;99.90;;;;;;5048471;28;20585;-67
2022/08/18 10:46:27;;;;;;;20.17;17.65;;;26.20;99.90;;;;;;5051566;28;20716;-67
2022/08/18 10:49:00;;;;;;;21.85;18.45;;;26.90;99.90;;;;;;5051602;28;20302;-67
2022/08/18 10:51:40;;;;;;;19.98;17.10;;;26.90;99.90;;;;;;5052427;28;20206;-67
2022/08/18 10:54:13;;;;;;;20.95;17.95;;;26.80;99.90;;;;;;5055594;28;20210;-67
2022/08/18 10:56:48;;;;;;;19.30;16.05;;;27.40;99.90;;;;;;5055900;28;20210;-67
2022/08/18 10:59:26;;;;;;;21.23;16.95;;;27.70;99.90;;;;;;5037516;28;20202;-67
2022/08/18 11:02:12;;;;;;;19.77;17.33;;;27.20;99.90;;;;;;5037919;28;20225;-67
2022/08/18 11:04:43;;;;;;;18.52;16.52;;;27.20;99.90;;;;;;5055523;28;20211;-67
2022/08/18 11:07:14;;;;;;;18.85;16.25;;;27.20;99.90;;;;;;5055660;28;20526;-67
2022/08/18 11:09:42;;;;;;;18.30;15.93;;;27.30;99.90;;;;;;5051150;28;20764;-68
2022/08/18 11:12:13;;;;;;;16.50;13.48;;;27.60;99.90;;;;;;5055379;28;20206;-67
2022/08/18 11:15:04;;;;;;;20.60;17.65;;;28.40;99.90;;;;;;5047424;28;20642;-68
2022/08/18 11:17:42;;;;;;;20.17;17.67;;;28.40;92.60;;;;;;5035738;28;20210;-68
2022/08/18 11:20:11;;;;;;;21.83;19.48;;;28.10;98.40;;;;;;5034931;28;20650;-67
2022/08/18 11:22:38;;;;;;;20.83;18.58;;;28.10;95.50;;;;;;5035034;28;20242;-68
2022/08/18 11:25:22;;;;;;;21.33;18.98;;;27.80;99.90;;;;;;5035405;28;20203;-68
2022/08/18 11:27:50;;;;;;;19.75;16.20;;;27.40;99.60;;;;;;5035075;28;20211;-67
2022/08/18 11:30:18;;;;;;;22.70;18.50;;;27.80;99.90;;;;;;5034489;28;20212;-68
2022/08/18 11:32:45;;;;;;;18.65;15.77;;;28.20;97.00;;;;;;5035060;28;20211;-67
2022/08/18 11:35:17;;;;;;;17.35;14.95;;;28.40;95.80;;;;;;5035240;28;20294;-67
2022/08/18 11:37:46;;;;;;;15.95;14.20;;;27.90;95.70;;;;;;5035030;28;20246;-67
2022/08/18 11:40:26;;;;;;;17.75;14.45;;;27.60;94.80;;;;;;5045520;28;20218;-68
2022/08/18 11:43:01;;;;;;;15.75;13.52;;;27.80;93.50;;;;;;5046987;28;20234;-67
2022/08/18 11:45:32;;;;;;;18.42;15.25;;;28.00;95.80;;;;;;5036590;28;20237;-67
2022/08/18 11:48:02;;;;;;;16.63;14.43;;;28.00;88.80;;;;;;5053792;28;20214;-68
2022/08/18 11:50:31;;;;;;;17.75;14.35;;;27.70;99.90;;;;;;5054728;28;20210;-68
2022/08/18 11:53:14;;;;;;;16.75;14.95;;;28.30;95.40;;;;;;5054992;28;20207;-68
2022/08/18 11:55:40;;;;;;;17.38;14.75;;;28.50;82.80;;;;;;5041673;28;20227;-67
2022/08/18 11:58:09;;;;;;;18.65;15.80;;;28.70;86.70;;;;;;5034882;28;20208;-68
2022/08/18 12:00:55;;;;;;;19.52;16.85;;;28.70;90.10;;;;;;5034462;28;20208;-68
2022/08/18 12:03:30;;;;;;;18.05;16.15;;;28.20;90.90;;;;;;5032975;28;20206;-67
2022/08/18 12:06:00;;;;;;;15.88;14.18;;;28.20;84.00;;;;;;5042122;28;20261;-67
2022/08/18 12:08:36;;;;;;;15.23;13.38;;;28.60;84.40;;;;;;5051727;28;20207;-67
2022/08/18 12:11:14;;;;;;;14.40;12.90;;;28.90;76.10;;;;;;5049786;28;20205;-67
2022/08/18 12:13:45;;;;;;;14.75;13.15;;;28.90;73.40;;;;;;5029537;28;20210;-68
2022/08/18 12:16:16;;;;;;;13.05;11.65;;;28.80;70.70;;;;;;5052534;28;20264;-67
2022/08/18 12:18:43;;;;;;;16.42;12.68;;;29.10;65.20;;;;;;5051189;28;20207;-68
2022/08/18 12:21:10;;;;;;;14.10;12.70;;;28.90;61.50;;;;;;5051012;28;20247;-67
2022/08/18 12:23:41;;;;;;;16.10;13.13;;;28.30;87.10;;;;;;5051038;28;20200;-67
2022/08/18 12:26:09;;;;;;;15.63;13.93;;;28.60;84.10;;;;;;5048404;28;20199;-68
2022/08/18 12:28:36;;;;;;;14.63;13.05;;;27.50;98.80;;;;;;5052134;28;20205;-67
2022/08/18 12:31:04;;;;;;;13.23;11.85;;;27.70;94.80;;;;;;5048201;28;20665;-67
2022/08/18 12:33:31;;;;;;;14.73;12.95;;;27.70;92.80;;;;;;5051921;28;20226;-67
2022/08/18 12:35:58;;;;;;;13.13;11.77;;;27.80;91.20;;;;;;5050006;28;20214;-67
2022/08/18 12:38:25;;;;;;;14.60;13.10;;;27.60;91.50;;;;;;5051300;28;20276;-67
2022/08/18 12:40:52;;;;;;;13.07;11.45;;;27.70;90.50;;;;;;5047263;28;20220;-67
2022/08/18 12:43:19;;;;;;;13.32;11.77;;;27.70;93.70;;;;;;5049388;28;20209;-67
2022/08/18 12:45:46;;;;;;;12.35;11.05;;;27.70;93.50;;;;;;5049883;28;20203;-67
2022/08/18 12:48:14;;;;;;;12.80;10.52;;;27.70;93.00;;;;;;5049431;28;20199;-67
2022/08/18 12:50:42;;;;;;;12.98;10.63;;;27.40;97.10;;;;;;5043503;28;20568;-67
2022/08/18 12:53:09;;;;;;;11.73;10.57;;;27.20;99.90;;;;;;5051691;28;20203;-67
2022/08/18 12:55:40;;;;;;;12.45;11.15;;;27.30;99.90;;;;;;5041413;28;20199;-67
2022/08/18 12:58:07;;;;;;;12.20;11.00;;;27.20;99.90;;;;;;5053183;28;20549;-67
2022/08/18 13:00:34;;;;;;;12.68;10.95;;;26.80;99.90;;;;;;5053196;28;20205;-68
2022/08/18 13:03:01;;;;;;;13.32;11.57;;;26.80;99.90;;;;;;5053303;28;20251;-67
2022/08/18 13:05:30;;;;;;;12.32;11.02;;;26.90;98.10;;;;;;5042802;28;20207;-67
2022/08/18 13:08:00;;;;;;;12.65;10.80;;;26.80;99.90;;;;;;5047281;28;20206;-67
2022/08/18 13:10:27;;;;;;;12.13;9.93;;;26.40;99.90;;;;;;5050012;28;20199;-67
2022/08/18 13:12:54;;;;;;;12.93;11.40;;;26.50;99.90;;;;;;5052696;28;20207;-67